Time,TemperatureF,DewpointF,PressureIn,WindDirection,WindDirectionDegrees,WindSpeedMPH,WindSpeedGustMPH,Humidity,HourlyPrecipIn,Conditions,Clouds,dailyrainin,SoftwareType,DateUTC
2013-04-23 00:04:00,35.6,31.7,30.01,WSW,248,0.0,0.0,86,0.00,,,0.00,WUHU216HW,2013-04-23 07:04:00,
2013-04-23 00:09:00,35.2,31.3,30.01,WSW,248,0.0,0.0,86,0.00,,,0.00,WUHU216HW,2013-04-23 07:09:00,
2013-04-23 00:14:00,35.0,31.3,30.01,WSW,248,0.0,0.0,85,0.00,,,0.00,WUHU216HW,2013-04-23 07:14:00,
2013-04-23 00:19:00,34.7,30.8,30.01,WSW,248,0.0,0.0,86,0.00,,,0.00,WUHU216HW,2013-04-23 07:19:00,
2013-04-23 00:24:00,34.3,30.4,30.00,WSW,248,0.0,0.0,86,0.00,,,0.00,WUHU216HW,2013-04-23 07:24:00,
2013-04-23 00:29:00,34.3,30.4,30.01,WSW,248,0.0,0.0,86,0.00,,,0.00,WUHU216HW,2013-04-23 07:29:00,
2013-04-23 00:34:00,34.3,30.4,30.01,WSW,248,0.0,0.0,86,0.00,,,0.00,WUHU216HW,2013-04-23 07:34:00,
2013-04-23 00:39:00,34.3,30.4,30.01,WSW,248,0.0,0.0,86,0.00,,,0.00,WUHU216HW,2013-04-23 07:39:00,
2013-04-23 00:44:00,34.3,30.7,30.00,WSW,248,0.0,0.0,87,0.00,,,0.00,WUHU216HW,2013-04-23 07:44:00,
2013-04-23 00:50:00,34.1,30.5,30.01,WSW,248,0.0,0.0,87,0.00,,,0.00,WUHU216HW,2013-04-23 07:50:00,
2013-04-23 00:55:00,34.1,30.5,30.01,WSW,248,0.0,0.0,87,0.00,,,0.00,WUHU216HW,2013-04-23 07:55:00,
2013-04-23 01:00:00,34.1,30.5,30.00,WSW,248,0.0,0.0,87,0.00,,,0.00,WUHU216HW,2013-04-23 08:00:00,
2013-04-23 01:05:00,34.1,30.5,30.01,WSW,248,0.0,0.0,87,0.00,,,0.00,WUHU216HW,2013-04-23 08:05:00,
2013-04-23 01:10:00,34.1,30.5,30.01,WSW,248,0.0,0.0,87,0.00,,,0.00,WUHU216HW,2013-04-23 08:10:00,
2013-04-23 01:15:00,33.8,30.2,30.00,WSW,248,0.0,0.0,87,0.00,,,0.00,WUHU216HW,2013-04-23 08:15:00,
2013-04-23 01:20:00,33.6,30.0,30.00,WSW,248,0.0,0.0,87,0.00,,,0.00,WUHU216HW,2013-04-23 08:20:00,
2013-04-23 01:25:00,33.6,30.0,30.00,WSW,248,0.0,0.0,87,0.00,,,0.00,WUHU216HW,2013-04-23 08:25:00,
2013-04-23 01:30:00,33.6,30.0,30.01,WSW,248,0.0,0.0,87,0.00,,,0.00,WUHU216HW,2013-04-23 08:30:00,
2013-04-23 01:35:00,33.4,29.9,30.00,WSW,248,0.0,0.0,87,0.00,,,0.00,WUHU216HW,2013-04-23 08:35:00,
2013-04-23 01:45:00,33.0,29.8,29.99,WSW,248,0.0,0.0,88,0.00,,,0.00,WUHU216HW,2013-04-23 08:45:00,
2013-04-23 01:50:00,33.0,29.8,30.00,WSW,248,0.0,0.0,88,0.00,,,0.00,WUHU216HW,2013-04-23 08:50:00,
2013-04-23 01:55:00,33.0,29.8,30.00,WSW,248,0.0,0.0,88,0.00,,,0.00,WUHU216HW,2013-04-23 08:55:00,
2013-04-23 02:00:00,33.0,29.8,29.99,WSW,248,0.0,0.0,88,0.00,,,0.00,WUHU216HW,2013-04-23 09:00:00,
2013-04-23 02:05:00,32.7,29.5,29.99,WSW,248,0.0,0.0,88,0.00,,,0.00,WUHU216HW,2013-04-23 09:05:00,
2013-04-23 02:10:00,32.7,29.5,29.98,WSW,248,0.0,0.0,88,0.00,,,0.00,WUHU216HW,2013-04-23 09:10:00,
2013-04-23 02:15:00,32.5,29.3,29.98,WSW,248,0.0,0.0,88,0.00,,,0.00,WUHU216HW,2013-04-23 09:15:00,
2013-04-23 02:20:00,32.5,29.6,29.98,West,270,0.0,0.0,89,0.00,,,0.00,WUHU216HW,2013-04-23 09:20:00,
2013-04-23 02:25:00,32.3,29.5,29.98,NNE,23,0.0,0.0,89,0.00,,,0.00,WUHU216HW,2013-04-23 09:25:00,
2013-04-23 02:30:00,32.3,29.5,29.99,NNE,23,0.0,0.0,89,0.00,,,0.00,WUHU216HW,2013-04-23 09:30:00,
2013-04-23 02:35:00,32.3,29.5,29.98,NNE,23,0.0,0.0,89,0.00,,,0.00,WUHU216HW,2013-04-23 09:35:00,
2013-04-23 02:40:00,32.3,29.5,29.98,NNE,23,0.0,0.0,89,0.00,,,0.00,WUHU216HW,2013-04-23 09:40:00,
2013-04-23 02:46:00,32.1,29.3,29.98,NNE,23,0.0,0.0,89,0.00,,,0.00,WUHU216HW,2013-04-23 09:46:00,
2013-04-23 02:51:00,31.8,28.7,29.98,NNE,23,0.0,0.0,88,0.00,,,0.00,WUHU216HW,2013-04-23 09:51:00,
2013-04-23 02:56:00,31.8,29.0,29.98,NNE,23,0.0,0.0,89,0.00,,,0.00,WUHU216HW,2013-04-23 09:56:00,
2013-04-23 03:01:00,31.8,29.0,29.97,NNE,23,0.0,0.0,89,0.00,,,0.00,WUHU216HW,2013-04-23 10:01:00,
2013-04-23 03:06:00,31.8,29.0,29.97,NNE,23,0.0,0.0,89,0.00,,,0.00,WUHU216HW,2013-04-23 10:06:00,
2013-04-23 03:11:00,31.8,29.0,29.97,NNE,23,0.0,0.0,89,0.00,,,0.00,WUHU216HW,2013-04-23 10:11:00,
2013-04-23 03:16:00,31.8,29.0,29.97,NNE,23,0.0,0.0,89,0.00,,,0.00,WUHU216HW,2013-04-23 10:16:00,
2013-04-23 03:21:00,31.8,29.0,29.97,NNE,23,0.0,0.0,89,0.00,,,0.00,WUHU216HW,2013-04-23 10:21:00,
2013-04-23 03:26:00,31.6,28.8,29.97,NNE,23,0.0,0.0,89,0.00,,,0.00,WUHU216HW,2013-04-23 10:26:00,
2013-04-23 03:31:00,31.6,28.8,29.97,NNE,23,0.0,0.0,89,0.00,,,0.00,WUHU216HW,2013-04-23 10:31:00,
2013-04-23 03:36:00,31.2,28.4,29.96,NNE,23,0.0,0.0,89,0.00,,,0.00,WUHU216HW,2013-04-23 10:36:00,
2013-04-23 03:41:00,31.2,28.4,29.97,NNE,23,0.0,0.0,89,0.00,,,0.00,WUHU216HW,2013-04-23 10:41:00,
2013-04-23 03:46:00,31.2,28.4,29.97,NNE,23,0.0,0.0,89,0.00,,,0.00,WUHU216HW,2013-04-23 10:46:00,
2013-04-23 03:51:00,31.2,28.4,29.97,NNE,23,0.0,0.0,89,0.00,,,0.00,WUHU216HW,2013-04-23 10:51:00,
2013-04-23 03:56:00,31.2,28.4,29.96,NNE,23,0.0,0.0,89,0.00,,,0.00,WUHU216HW,2013-04-23 10:56:00,
2013-04-23 04:01:00,31.2,28.4,29.96,NNE,23,0.0,0.0,89,0.00,,,0.00,WUHU216HW,2013-04-23 11:01:00,
2013-04-23 04:06:00,31.2,28.4,29.97,NNE,23,0.0,0.0,89,0.00,,,0.00,WUHU216HW,2013-04-23 11:06:00,
2013-04-23 04:11:00,31.2,28.4,29.96,NNE,23,0.0,0.0,89,0.00,,,0.00,WUHU216HW,2013-04-23 11:11:00,
2013-04-23 04:16:00,31.1,28.2,29.96,NNE,23,0.0,0.0,89,0.00,,,0.00,WUHU216HW,2013-04-23 11:16:00,
2013-04-23 04:21:00,31.1,28.5,29.95,NNE,23,0.0,0.0,90,0.00,,,0.00,WUHU216HW,2013-04-23 11:21:00,
2013-04-23 04:26:00,31.1,28.5,29.95,NNE,23,0.0,0.0,90,0.00,,,0.00,WUHU216HW,2013-04-23 11:26:00,
2013-04-23 04:31:00,30.9,28.4,29.96,NNE,23,0.0,0.0,90,0.00,,,0.00,WUHU216HW,2013-04-23 11:31:00,
2013-04-23 04:36:00,30.9,28.4,29.96,NNE,23,0.0,0.0,90,0.00,,,0.00,WUHU216HW,2013-04-23 11:36:00,
2013-04-23 04:41:00,30.9,28.4,29.95,NNE,23,0.0,0.0,90,0.00,,,0.00,WUHU216HW,2013-04-23 11:41:00,
2013-04-23 04:46:00,30.9,28.4,29.95,NNE,23,0.0,0.0,90,0.00,,,0.00,WUHU216HW,2013-04-23 11:46:00,
2013-04-23 04:51:00,30.7,28.2,29.95,NNE,23,0.0,0.0,90,0.00,,,0.00,WUHU216HW,2013-04-23 11:51:00,
2013-04-23 04:56:00,30.7,28.2,29.95,NNE,23,0.0,0.0,90,0.00,,,0.00,WUHU216HW,2013-04-23 11:56:00,
2013-04-23 05:01:00,30.7,28.2,29.95,NNE,23,0.0,0.0,90,0.00,,,0.00,WUHU216HW,2013-04-23 12:01:00,
2013-04-23 05:06:00,30.7,28.2,29.95,NNE,23,0.0,0.0,90,0.00,,,0.00,WUHU216HW,2013-04-23 12:06:00,
2013-04-23 05:11:00,30.7,28.2,29.95,NNE,23,0.0,0.0,90,0.00,,,0.00,WUHU216HW,2013-04-23 12:11:00,
2013-04-23 05:16:00,30.7,28.2,29.96,NNE,23,0.0,0.0,90,0.00,,,0.00,WUHU216HW,2013-04-23 12:16:00,
2013-04-23 05:21:00,30.5,28.0,29.95,NNE,23,0.0,0.0,90,0.00,,,0.00,WUHU216HW,2013-04-23 12:21:00,
2013-04-23 05:26:00,30.5,28.0,29.95,NNE,23,0.0,0.0,90,0.00,,,0.00,WUHU216HW,2013-04-23 12:26:00,
2013-04-23 05:31:00,30.5,28.0,29.95,NNE,23,0.0,0.0,90,0.00,,,0.00,WUHU216HW,2013-04-23 12:31:00,
2013-04-23 05:36:00,30.3,27.8,29.95,NNE,23,0.0,0.0,90,0.00,,,0.00,WUHU216HW,2013-04-23 12:36:00,
2013-04-23 05:41:00,30.3,27.8,29.95,NNE,23,0.0,0.0,90,0.00,,,0.00,WUHU216HW,2013-04-23 12:41:00,
2013-04-23 05:46:00,30.3,27.8,29.95,NNE,23,0.0,0.0,90,0.00,,,0.00,WUHU216HW,2013-04-23 12:46:00,
2013-04-23 05:51:00,30.3,27.8,29.95,NNE,23,0.0,0.0,90,0.00,,,0.00,WUHU216HW,2013-04-23 12:51:00,
2013-04-23 05:56:00,30.3,27.8,29.95,NNE,23,0.0,0.0,90,0.00,,,0.00,WUHU216HW,2013-04-23 12:56:00,
2013-04-23 06:01:00,30.3,27.8,29.95,NNE,23,0.0,0.0,90,0.00,,,0.00,WUHU216HW,2013-04-23 13:01:00,
2013-04-23 06:06:00,30.2,27.6,29.95,NNE,23,0.0,0.0,90,0.00,,,0.00,WUHU216HW,2013-04-23 13:06:00,
2013-04-23 06:11:00,30.2,27.6,29.95,NNE,23,0.0,0.0,90,0.00,,,0.00,WUHU216HW,2013-04-23 13:11:00,
2013-04-23 06:16:00,30.2,27.6,29.94,NNE,23,0.0,0.0,90,0.00,,,0.00,WUHU216HW,2013-04-23 13:16:00,
2013-04-23 06:21:00,30.2,27.6,29.94,NNE,23,0.0,0.0,90,0.00,,,0.00,WUHU216HW,2013-04-23 13:21:00,
2013-04-23 06:26:00,30.0,27.5,29.94,NNE,23,0.0,0.0,90,0.00,,,0.00,WUHU216HW,2013-04-23 13:26:00,
2013-04-23 06:31:00,30.0,27.5,29.94,NNE,23,0.0,0.0,90,0.00,,,0.00,WUHU216HW,2013-04-23 13:31:00,
2013-04-23 06:36:00,30.2,27.6,29.94,NNE,23,0.0,0.0,90,0.00,,,0.00,WUHU216HW,2013-04-23 13:36:00,
2013-04-23 06:41:00,30.2,27.6,29.94,NNE,23,0.0,0.0,90,0.00,,,0.00,WUHU216HW,2013-04-23 13:41:00,
2013-04-23 06:46:00,30.2,27.9,29.94,NNE,23,0.0,0.0,91,0.00,,,0.00,WUHU216HW,2013-04-23 13:46:00,
2013-04-23 06:51:00,30.2,27.9,29.94,NNE,23,0.0,0.0,91,0.00,,,0.00,WUHU216HW,2013-04-23 13:51:00,
2013-04-23 06:56:00,30.3,28.1,29.94,NNE,23,0.0,0.0,91,0.00,,,0.00,WUHU216HW,2013-04-23 13:56:00,
2013-04-23 07:01:00,30.3,28.1,29.95,NNE,23,0.0,0.0,91,0.00,,,0.00,WUHU216HW,2013-04-23 14:01:00,
2013-04-23 07:06:00,30.5,28.2,29.94,NNE,23,0.0,0.0,91,0.00,,,0.00,WUHU216HW,2013-04-23 14:06:00,
2013-04-23 07:11:00,30.5,28.2,29.94,NNE,23,0.0,0.0,91,0.00,,,0.00,WUHU216HW,2013-04-23 14:11:00,
2013-04-23 07:16:00,30.7,28.4,29.94,NNE,23,0.0,0.0,91,0.00,,,0.00,WUHU216HW,2013-04-23 14:16:00,
2013-04-23 07:21:00,30.9,28.6,29.93,NNE,23,0.0,0.0,91,0.00,,,0.00,WUHU216HW,2013-04-23 14:21:00,
2013-04-23 07:26:00,31.1,28.8,29.93,NNE,23,0.0,0.0,91,0.00,,,0.00,WUHU216HW,2013-04-23 14:26:00,
2013-04-23 07:31:00,31.2,29.0,29.93,NNE,23,0.0,0.0,91,0.00,,,0.00,WUHU216HW,2013-04-23 14:31:00,
2013-04-23 07:36:00,31.2,29.0,29.93,NNE,23,0.0,0.0,91,0.00,,,0.00,WUHU216HW,2013-04-23 14:36:00,
2013-04-23 07:41:00,31.6,29.3,29.93,NNE,23,0.0,0.0,91,0.00,,,0.00,WUHU216HW,2013-04-23 14:41:00,
2013-04-23 07:46:00,31.6,29.3,29.93,NNE,23,0.0,0.0,91,0.00,,,0.00,WUHU216HW,2013-04-23 14:46:00,
2013-04-23 07:51:00,31.8,29.5,29.93,NNE,23,0.0,0.0,91,0.00,,,0.00,WUHU216HW,2013-04-23 14:51:00,
2013-04-23 07:56:00,32.1,29.8,29.93,NNE,23,0.0,0.0,91,0.00,,,0.00,WUHU216HW,2013-04-23 14:56:00,
2013-04-23 08:02:00,32.1,29.8,29.93,NNE,23,0.0,0.0,91,0.00,,,0.00,WUHU216HW,2013-04-23 15:02:00,
2013-04-23 08:07:00,32.3,30.0,29.93,NNE,23,0.0,0.0,91,0.00,,,0.00,WUHU216HW,2013-04-23 15:07:00,
2013-04-23 08:12:00,32.7,30.3,29.93,NNE,23,0.0,0.0,91,0.00,,,0.00,WUHU216HW,2013-04-23 15:12:00,
2013-04-23 08:17:00,32.9,30.5,29.93,NNE,23,0.0,0.0,91,0.00,,,0.00,WUHU216HW,2013-04-23 15:17:00,
2013-04-23 08:22:00,33.2,30.8,29.93,NNE,23,0.0,0.0,91,0.00,,,0.00,WUHU216HW,2013-04-23 15:22:00,
2013-04-23 08:27:00,33.6,31.1,29.92,NNE,23,0.0,0.0,91,0.00,,,0.00,WUHU216HW,2013-04-23 15:27:00,
2013-04-23 08:32:00,33.9,31.8,29.93,NNE,23,0.0,0.0,92,0.00,,,0.00,WUHU216HW,2013-04-23 15:32:00,
2013-04-23 08:37:00,34.5,32.3,29.92,NNE,23,0.0,0.0,92,0.00,,,0.00,WUHU216HW,2013-04-23 15:37:00,
2013-04-23 08:42:00,35.4,33.2,29.91,NNE,23,0.0,0.0,92,0.00,,,0.00,WUHU216HW,2013-04-23 15:42:00,
2013-04-23 08:47:00,35.9,33.8,29.91,NNE,23,0.0,0.0,92,0.00,,,0.00,WUHU216HW,2013-04-23 15:47:00,
2013-04-23 08:52:00,36.8,34.7,29.91,NE,45,0.0,0.0,92,0.00,,,0.00,WUHU216HW,2013-04-23 15:52:00,
2013-04-23 08:57:00,37.0,34.8,29.91,NE,45,0.0,0.0,92,0.00,,,0.00,WUHU216HW,2013-04-23 15:57:00,
2013-04-23 09:02:00,37.4,35.2,29.90,NE,45,0.0,0.0,92,0.00,,,0.00,WUHU216HW,2013-04-23 16:02:00,
2013-04-23 09:07:00,38.3,35.8,29.90,NE,45,0.0,0.0,91,0.00,,,0.00,WUHU216HW,2013-04-23 16:07:00,
2013-04-23 09:12:00,38.8,36.4,29.90,NE,45,0.0,0.0,91,0.00,,,0.00,WUHU216HW,2013-04-23 16:12:00,
2013-04-23 09:17:00,39.3,36.9,29.90,NE,45,0.0,0.0,91,0.00,,,0.00,WUHU216HW,2013-04-23 16:17:00,
2013-04-23 09:22:00,39.7,37.0,29.90,NE,45,0.0,0.0,90,0.00,,,0.00,WUHU216HW,2013-04-23 16:22:00,
2013-04-23 09:27:00,40.2,37.5,29.90,NE,45,0.0,0.0,90,0.00,,,0.00,WUHU216HW,2013-04-23 16:27:00,
2013-04-23 09:32:00,40.8,37.5,29.90,SSW,203,0.0,0.0,88,0.00,,,0.00,WUHU216HW,2013-04-23 16:32:00,
2013-04-23 09:37:00,41.5,37.6,29.90,SSW,203,0.0,0.0,86,0.00,,,0.00,WUHU216HW,2013-04-23 16:37:00,
2013-04-23 09:42:00,41.7,37.7,29.90,WSW,248,0.0,0.0,86,0.00,,,0.00,WUHU216HW,2013-04-23 16:42:00,
2013-04-23 09:47:00,42.0,37.8,29.90,SW,225,0.0,0.0,85,0.00,,,0.00,WUHU216HW,2013-04-23 16:47:00,
2013-04-23 09:52:00,42.6,38.0,29.89,SW,225,0.0,0.0,84,0.00,,,0.00,WUHU216HW,2013-04-23 16:52:00,
2013-04-23 09:57:00,42.8,37.6,29.88,SW,225,0.0,0.0,82,0.00,,,0.00,WUHU216HW,2013-04-23 16:57:00,
2013-04-23 10:02:00,43.3,37.8,29.89,South,180,0.0,0.0,81,0.00,,,0.00,WUHU216HW,2013-04-23 17:02:00,
2013-04-23 10:07:00,43.5,37.7,29.88,SSW,203,0.0,0.0,80,0.00,,,0.00,WUHU216HW,2013-04-23 17:07:00,
2013-04-23 10:12:00,44.0,37.9,29.88,SSW,203,0.0,0.0,79,0.00,,,0.00,WUHU216HW,2013-04-23 17:12:00,
2013-04-23 10:17:00,44.9,38.1,29.88,ENE,68,0.0,0.0,77,0.00,,,0.00,WUHU216HW,2013-04-23 17:17:00,
2013-04-23 10:22:00,45.3,38.5,29.88,NNE,23,2.4,2.4,77,0.00,,,0.00,WUHU216HW,2013-04-23 17:22:00,
2013-04-23 10:27:00,46.0,38.5,29.87,SSE,158,0.0,2.4,75,0.00,,,0.00,WUHU216HW,2013-04-23 17:27:00,
2013-04-23 10:32:00,46.9,39.4,29.87,WSW,248,0.0,2.4,75,0.00,,,0.00,WUHU216HW,2013-04-23 17:32:00,
2013-04-23 10:37:00,47.6,39.7,29.87,WSW,248,0.0,0.0,74,0.00,,,0.00,WUHU216HW,2013-04-23 17:37:00,
2013-04-23 10:42:00,48.3,40.0,29.87,NNE,23,0.0,0.0,73,0.00,,,0.00,WUHU216HW,2013-04-23 17:42:00,
2013-04-23 10:47:00,49.8,40.8,29.87,NE,45,0.0,0.0,71,0.00,,,0.00,WUHU216HW,2013-04-23 17:47:00,
2013-04-23 10:52:00,51.0,41.3,29.87,NNE,23,0.0,2.9,69,0.00,,,0.00,WUHU216HW,2013-04-23 17:52:00,
2013-04-23 10:57:00,52.5,42.2,29.87,West,270,0.0,2.9,68,0.00,,,0.00,WUHU216HW,2013-04-23 17:57:00,
2013-04-23 11:02:00,53.2,42.1,29.87,South,180,0.0,0.0,66,0.00,,,0.00,WUHU216HW,2013-04-23 18:02:00,
2013-04-23 11:07:00,52.8,41.3,29.87,South,180,0.0,0.0,65,0.00,,,0.00,WUHU216HW,2013-04-23 18:07:00,
2013-04-23 11:12:00,52.8,41.3,29.87,SSW,203,0.0,0.0,65,0.00,,,0.00,WUHU216HW,2013-04-23 18:12:00,
2013-04-23 11:17:00,52.7,40.4,29.87,NNE,23,0.0,0.0,63,0.00,,,0.00,WUHU216HW,2013-04-23 18:17:00,
2013-04-23 11:22:00,52.7,41.2,29.87,WSW,248,0.0,0.0,65,0.00,,,0.00,WUHU216HW,2013-04-23 18:22:00,
2013-04-23 11:27:00,52.8,40.9,29.87,SW,225,0.0,0.0,64,0.00,,,0.00,WUHU216HW,2013-04-23 18:27:00,
2013-04-23 11:32:00,53.2,41.3,29.87,WSW,248,0.0,0.0,64,0.00,,,0.00,WUHU216HW,2013-04-23 18:32:00,
2013-04-23 11:37:00,53.4,41.1,29.86,South,180,0.0,0.0,63,0.00,,,0.00,WUHU216HW,2013-04-23 18:37:00,
2013-04-23 11:42:00,53.2,40.5,29.86,SW,225,0.0,0.0,62,0.00,,,0.00,WUHU216HW,2013-04-23 18:42:00,
2013-04-23 11:47:00,52.8,40.1,29.87,WNW,293,0.0,0.0,62,0.00,,,0.00,WUHU216HW,2013-04-23 18:47:00,
2013-04-23 11:52:00,52.5,40.2,29.86,SW,225,0.0,0.0,63,0.00,,,0.00,WUHU216HW,2013-04-23 18:52:00,
2013-04-23 11:57:00,52.5,40.2,29.86,SW,225,0.0,0.0,63,0.00,,,0.00,WUHU216HW,2013-04-23 18:57:00,
2013-04-23 12:02:00,52.3,40.0,29.86,SSW,203,0.0,0.0,63,0.00,,,0.00,WUHU216HW,2013-04-23 19:02:00,
2013-04-23 12:07:00,52.5,40.2,29.86,SSW,203,0.0,0.0,63,0.00,,,0.00,WUHU216HW,2013-04-23 19:07:00,
2013-04-23 12:12:00,53.2,40.9,29.86,West,270,0.0,0.0,63,0.00,,,0.00,WUHU216HW,2013-04-23 19:12:00,
2013-04-23 12:17:00,53.9,40.8,29.86,West,270,0.0,0.0,61,0.00,,,0.00,WUHU216HW,2013-04-23 19:17:00,
2013-04-23 12:22:00,54.3,40.7,29.86,SSW,203,0.0,0.0,60,0.00,,,0.00,WUHU216HW,2013-04-23 19:22:00,
2013-04-23 12:27:00,54.6,40.6,29.85,South,180,0.0,0.0,59,0.00,,,0.00,WUHU216HW,2013-04-23 19:27:00,
2013-04-23 12:32:00,55.7,41.1,29.86,SSW,203,0.0,0.0,58,0.00,,,0.00,WUHU216HW,2013-04-23 19:32:00,
2013-04-23 12:37:00,57.0,41.4,29.85,WSW,248,0.0,0.0,56,0.00,,,0.00,WUHU216HW,2013-04-23 19:37:00,
2013-04-23 12:42:00,57.3,41.8,29.85,SSW,203,0.0,0.0,56,0.00,,,0.00,WUHU216HW,2013-04-23 19:42:00,
2013-04-23 12:47:00,57.3,40.4,29.85,NNW,338,0.0,0.0,53,0.00,,,0.00,WUHU216HW,2013-04-23 19:47:00,
2013-04-23 12:52:00,57.3,40.5,29.84,WSW,248,0.0,0.0,54,0.00,,,0.00,WUHU216HW,2013-04-23 19:52:00,
2013-04-23 13:02:00,56.4,39.0,29.85,WSW,248,0.0,0.0,52,0.00,,,0.00,WUHU216HW,2013-04-23 20:02:00,
2013-04-23 13:07:00,56.4,39.0,29.84,West,270,0.0,0.0,52,0.00,,,0.00,WUHU216HW,2013-04-23 20:07:00,
2013-04-23 13:12:00,56.4,39.0,29.84,WSW,248,0.0,0.0,52,0.00,,,0.00,WUHU216HW,2013-04-23 20:12:00,
2013-04-23 13:17:00,56.3,39.3,29.84,NNW,338,0.0,0.0,53,0.00,,,0.00,WUHU216HW,2013-04-23 20:17:00,
2013-04-23 13:22:00,56.3,39.3,29.84,SSW,203,0.0,0.0,53,0.00,,,0.00,WUHU216HW,2013-04-23 20:22:00,
2013-04-23 13:27:00,56.3,39.3,29.84,South,180,0.0,0.0,52,0.00,,,0.00,WUHU216HW,2013-04-23 20:27:00,
2013-04-23 13:32:00,56.3,38.4,29.84,West,270,0.0,1.3,51,0.00,,,0.00,WUHU216HW,2013-04-23 20:32:00,
2013-04-23 13:37:00,55.9,38.9,29.84,WSW,248,0.0,1.3,53,0.00,,,0.00,WUHU216HW,2013-04-23 20:37:00,
2013-04-23 13:42:00,55.9,39.4,29.85,NW,315,0.0,0.0,54,0.00,,,0.00,WUHU216HW,2013-04-23 20:42:00,
2013-04-23 13:47:00,55.5,37.6,29.85,South,180,0.0,0.0,51,0.00,,,0.00,WUHU216HW,2013-04-23 20:47:00,
2013-04-23 13:52:00,55.4,37.0,29.84,SW,225,0.0,0.0,50,0.00,,,0.00,WUHU216HW,2013-04-23 20:52:00,
2013-04-23 13:57:00,55.2,37.3,29.84,SW,225,0.0,0.0,51,0.00,,,0.00,WUHU216HW,2013-04-23 20:57:00,
2013-04-23 14:02:00,54.8,37.9,29.84,SSW,203,0.0,0.0,53,0.00,,,0.00,WUHU216HW,2013-04-23 21:02:00,
2013-04-23 14:07:00,54.8,38.8,29.84,SSW,203,0.0,0.0,55,0.00,,,0.00,WUHU216HW,2013-04-23 21:07:00,
2013-04-23 14:12:00,54.8,38.8,29.85,NNE,23,0.0,0.0,54,0.00,,,0.00,WUHU216HW,2013-04-23 21:12:00,
2013-04-23 14:17:00,55.0,38.5,29.85,NNE,23,0.0,0.0,54,0.00,,,0.00,WUHU216HW,2013-04-23 21:17:00,
2013-04-23 14:22:00,55.0,38.1,29.83,NW,315,0.0,0.0,53,0.00,,,0.00,WUHU216HW,2013-04-23 21:22:00,
2013-04-23 14:27:00,54.8,37.1,29.84,SSW,203,0.0,0.0,52,0.00,,,0.00,WUHU216HW,2013-04-23 21:27:00,
2013-04-23 14:32:00,55.0,36.7,29.84,SSW,203,0.0,0.0,50,0.00,,,0.00,WUHU216HW,2013-04-23 21:32:00,
2013-04-23 14:37:00,55.2,36.8,29.84,NNE,23,0.0,2.2,50,0.00,,,0.00,WUHU216HW,2013-04-23 21:37:00,
2013-04-23 14:42:00,55.2,36.3,29.83,South,180,0.0,2.4,49,0.00,,,0.00,WUHU216HW,2013-04-23 21:42:00,
2013-04-23 14:47:00,55.2,35.2,29.84,North,0,2.9,2.9,47,0.00,,,0.00,WUHU216HW,2013-04-23 21:47:00,
2013-04-23 14:52:00,55.5,34.4,29.83,SSW,203,1.3,5.1,45,0.00,,,0.00,WUHU216HW,2013-04-23 21:52:00,
2013-04-23 14:57:00,55.7,35.7,29.83,South,180,0.0,5.1,47,0.00,,,0.00,WUHU216HW,2013-04-23 21:57:00,
2013-04-23 15:02:00,55.9,35.8,29.82,South,180,0.0,0.0,47,0.00,,,0.00,WUHU216HW,2013-04-23 22:02:00,
2013-04-23 15:07:00,56.1,36.6,29.83,WSW,248,0.0,0.0,48,0.00,,,0.00,WUHU216HW,2013-04-23 22:07:00,
2013-04-23 15:12:00,56.1,33.8,29.83,SSE,158,0.0,2.2,43,0.00,,,0.00,WUHU216HW,2013-04-23 22:12:00,
2013-04-23 15:17:00,55.9,33.6,29.82,SSW,203,0.0,2.2,43,0.00,,,0.00,WUHU216HW,2013-04-23 22:17:00,
2013-04-23 15:22:00,55.7,35.1,29.82,WNW,293,0.0,0.0,46,0.00,,,0.00,WUHU216HW,2013-04-23 22:22:00,
2013-04-23 15:27:00,55.7,35.1,29.82,West,270,0.0,0.0,46,0.00,,,0.00,WUHU216HW,2013-04-23 22:27:00,
2013-04-23 15:32:00,55.7,35.7,29.82,West,270,0.0,0.0,47,0.00,,,0.00,WUHU216HW,2013-04-23 22:32:00,
2013-04-23 15:37:00,55.7,35.7,29.82,SSW,203,0.0,1.1,47,0.00,,,0.00,WUHU216HW,2013-04-23 22:37:00,
2013-04-23 15:42:00,56.1,36.6,29.82,WSW,248,0.0,1.1,48,0.00,,,0.00,WUHU216HW,2013-04-23 22:42:00,
2013-04-23 15:47:00,56.4,34.7,29.82,North,0,0.0,0.0,44,0.00,,,0.00,WUHU216HW,2013-04-23 22:47:00,
2013-04-23 15:52:00,56.4,35.2,29.81,North,0,0.0,0.0,45,0.00,,,0.00,WUHU216HW,2013-04-23 22:52:00,
2013-04-23 15:57:00,56.1,33.8,29.82,West,270,0.0,0.0,43,0.00,,,0.00,WUHU216HW,2013-04-23 22:57:00,
2013-04-23 16:02:00,55.9,34.7,29.81,WSW,248,0.0,0.0,45,0.00,,,0.00,WUHU216HW,2013-04-23 23:02:00,
2013-04-23 16:07:00,56.1,34.9,29.81,WSW,248,0.0,0.0,45,0.00,,,0.00,WUHU216HW,2013-04-23 23:07:00,
2013-04-23 16:12:00,56.1,34.9,29.81,West,270,0.0,0.0,45,0.00,,,0.00,WUHU216HW,2013-04-23 23:12:00,
2013-04-23 16:17:00,56.1,34.9,29.81,WNW,293,0.0,0.0,45,0.00,,,0.00,WUHU216HW,2013-04-23 23:17:00,
2013-04-23 16:22:00,55.9,35.3,29.81,WSW,248,0.0,0.0,46,0.00,,,0.00,WUHU216HW,2013-04-23 23:22:00,
2013-04-23 16:27:00,56.1,34.3,29.81,South,180,0.0,0.8,44,0.00,,,0.00,WUHU216HW,2013-04-23 23:27:00,
2013-04-23 16:32:00,55.9,34.1,29.80,WSW,248,0.0,0.8,44,0.00,,,0.00,WUHU216HW,2013-04-23 23:32:00,
2013-04-23 16:37:00,55.9,34.7,29.80,North,0,3.5,3.5,45,0.00,,,0.00,WUHU216HW,2013-04-23 23:37:00,
2013-04-23 16:42:00,55.9,35.3,29.80,SW,225,0.0,3.5,46,0.00,,,0.00,WUHU216HW,2013-04-23 23:42:00,
2013-04-23 16:47:00,55.9,35.3,29.80,NE,45,3.1,3.5,46,0.00,,,0.00,WUHU216HW,2013-04-23 23:47:00,
2013-04-23 16:52:00,56.1,34.9,29.80,South,180,0.0,3.1,45,0.00,,,0.00,WUHU216HW,2013-04-23 23:52:00,
2013-04-23 16:57:00,56.3,34.5,29.80,South,180,0.0,3.1,44,0.00,,,0.00,WUHU216HW,2013-04-23 23:57:00,
2013-04-23 17:03:00,56.4,34.7,29.80,SSW,203,0.0,0.0,44,0.00,,,0.00,WUHU216HW,2013-04-24 00:03:00,
2013-04-23 17:08:00,56.3,33.9,29.79,NNE,23,0.0,0.0,43,0.00,,,0.00,WUHU216HW,2013-04-24 00:08:00,
2013-04-23 17:13:00,56.4,34.7,29.80,SSW,203,0.0,0.0,44,0.00,,,0.00,WUHU216HW,2013-04-24 00:13:00,
2013-04-23 17:18:00,56.1,34.3,29.80,South,180,0.0,0.0,44,0.00,,,0.00,WUHU216HW,2013-04-24 00:18:00,
2013-04-23 17:23:00,56.1,34.3,29.79,ENE,68,1.3,1.3,44,0.00,,,0.00,WUHU216HW,2013-04-24 00:23:00,
2013-04-23 17:28:00,55.9,36.4,29.79,NNE,23,0.0,1.3,48,0.00,,,0.00,WUHU216HW,2013-04-24 00:28:00,
2013-04-23 17:33:00,55.9,36.4,29.79,West,270,0.0,1.3,48,0.00,,,0.00,WUHU216HW,2013-04-24 00:33:00,
2013-04-23 17:38:00,55.9,35.8,29.80,West,270,0.0,1.3,47,0.00,,,0.00,WUHU216HW,2013-04-24 00:38:00,
2013-04-23 17:43:00,55.7,35.1,29.80,South,180,0.0,1.7,46,0.00,,,0.00,WUHU216HW,2013-04-24 00:43:00,
2013-04-23 17:48:00,55.4,35.3,29.80,South,180,0.0,1.7,47,0.00,,,0.00,WUHU216HW,2013-04-24 00:48:00,
2013-04-23 17:53:00,55.2,35.2,29.80,South,180,0.0,0.0,47,0.00,,,0.00,WUHU216HW,2013-04-24 00:53:00,
2013-04-23 17:58:00,54.8,35.4,29.80,South,180,0.0,0.0,48,0.00,,,0.00,WUHU216HW,2013-04-24 00:58:00,
2013-04-23 18:03:00,54.5,35.1,29.80,South,180,0.0,0.0,48,0.00,,,0.00,WUHU216HW,2013-04-24 01:03:00,
2013-04-23 18:08:00,54.3,35.5,29.80,South,180,0.0,0.0,49,0.00,,,0.00,WUHU216HW,2013-04-24 01:08:00,
2013-04-23 18:13:00,53.9,35.7,29.80,South,180,0.0,0.0,50,0.00,,,0.00,WUHU216HW,2013-04-24 01:13:00,
2013-04-23 18:18:00,53.7,36.0,29.80,South,180,0.0,0.0,51,0.00,,,0.00,WUHU216HW,2013-04-24 01:18:00,
2013-04-23 18:23:00,53.4,36.1,29.80,South,180,0.0,0.0,52,0.00,,,0.00,WUHU216HW,2013-04-24 01:23:00,
2013-04-23 18:28:00,53.4,36.6,29.80,South,180,0.0,0.0,53,0.00,,,0.00,WUHU216HW,2013-04-24 01:28:00,
2013-04-23 18:33:00,52.8,36.1,29.80,WNW,293,0.0,0.0,53,0.00,,,0.00,WUHU216HW,2013-04-24 01:33:00,
2013-04-23 18:38:00,52.8,36.6,29.80,West,270,0.0,0.0,54,0.00,,,0.00,WUHU216HW,2013-04-24 01:38:00,
2013-04-23 18:43:00,52.7,35.9,29.81,South,180,0.0,0.0,53,0.00,,,0.00,WUHU216HW,2013-04-24 01:43:00,
2013-04-23 18:48:00,52.5,35.3,29.81,NNE,23,0.0,0.0,52,0.00,,,0.00,WUHU216HW,2013-04-24 01:48:00,
2013-04-23 18:53:00,52.5,35.3,29.81,NNE,23,0.0,0.0,52,0.00,,,0.00,WUHU216HW,2013-04-24 01:53:00,
2013-04-23 18:58:00,52.1,35.9,29.80,NNE,23,0.0,0.0,54,0.00,,,0.00,WUHU216HW,2013-04-24 01:58:00,
2013-04-23 19:03:00,51.9,35.3,29.81,NNW,338,0.0,0.0,53,0.00,,,0.00,WUHU216HW,2013-04-24 02:03:00,
2013-04-23 19:08:00,51.8,35.6,29.81,North,0,0.0,0.0,54,0.00,,,0.00,WUHU216HW,2013-04-24 02:08:00,
2013-04-23 19:13:00,51.6,34.9,29.81,WNW,293,0.0,0.0,53,0.00,,,0.00,WUHU216HW,2013-04-24 02:13:00,
2013-04-23 19:18:00,51.6,34.9,29.81,WSW,248,0.0,0.0,53,0.00,,,0.00,WUHU216HW,2013-04-24 02:18:00,
2013-04-23 19:23:00,51.4,35.2,29.81,WSW,248,0.0,0.0,54,0.00,,,0.00,WUHU216HW,2013-04-24 02:23:00,
2013-04-23 19:28:00,51.0,35.4,29.81,WSW,248,0.0,0.0,55,0.00,,,0.00,WUHU216HW,2013-04-24 02:28:00,
2013-04-23 19:33:00,50.5,36.7,29.81,WSW,248,0.0,0.0,59,0.00,,,0.00,WUHU216HW,2013-04-24 02:33:00,
2013-04-23 19:38:00,50.1,36.8,29.82,WSW,248,0.0,0.0,60,0.00,,,0.00,WUHU216HW,2013-04-24 02:38:00,
2013-04-23 19:43:00,49.8,37.6,29.82,WSW,248,0.0,0.0,63,0.00,,,0.00,WUHU216HW,2013-04-24 02:43:00,
2013-04-23 19:48:00,49.2,37.9,29.82,WSW,248,0.0,0.0,65,0.00,,,0.00,WUHU216HW,2013-04-24 02:48:00,
2013-04-23 19:53:00,48.9,37.6,29.82,WSW,248,0.0,0.0,65,0.00,,,0.00,WUHU216HW,2013-04-24 02:53:00,
2013-04-23 19:59:00,48.9,38.3,29.82,WSW,248,0.0,0.0,67,0.00,,,0.00,WUHU216HW,2013-04-24 02:59:00,
2013-04-23 20:04:00,48.3,37.8,29.82,WSW,248,0.0,0.0,67,0.00,,,0.00,WUHU216HW,2013-04-24 03:04:00,
2013-04-23 20:09:00,47.8,37.7,29.82,WSW,248,0.0,0.0,68,0.00,,,0.00,WUHU216HW,2013-04-24 03:09:00,
2013-04-23 20:14:00,47.8,38.1,29.82,SW,225,0.0,0.0,69,0.00,,,0.00,WUHU216HW,2013-04-24 03:14:00,
2013-04-23 20:19:00,46.5,37.3,29.82,SW,225,0.0,0.0,69,0.00,,,0.00,WUHU216HW,2013-04-24 03:19:00,
2013-04-23 20:24:00,46.2,36.6,29.83,SW,225,0.0,0.0,69,0.00,,,0.00,WUHU216HW,2013-04-24 03:24:00,
2013-04-23 20:29:00,46.0,36.4,29.83,SW,225,0.0,0.0,69,0.00,,,0.00,WUHU216HW,2013-04-24 03:29:00,
2013-04-23 20:34:00,45.6,36.5,29.84,SW,225,0.0,0.0,70,0.00,,,0.00,WUHU216HW,2013-04-24 03:34:00,
2013-04-23 20:39:00,45.1,35.9,29.83,SW,225,0.0,0.0,70,0.00,,,0.00,WUHU216HW,2013-04-24 03:39:00,
2013-04-23 20:45:00,44.4,35.5,29.84,SW,225,0.0,0.0,71,0.00,,,0.00,WUHU216HW,2013-04-24 03:45:00,
2013-04-23 20:50:00,44.2,35.7,29.84,SW,225,0.0,0.0,72,0.00,,,0.00,WUHU216HW,2013-04-24 03:50:00,
2013-04-23 20:55:00,43.8,35.7,29.85,SW,225,0.0,0.0,73,0.00,,,0.00,WUHU216HW,2013-04-24 03:55:00,
2013-04-23 21:00:00,43.3,35.2,29.85,SW,225,0.0,0.0,73,0.00,,,0.00,WUHU216HW,2013-04-24 04:00:00,
2013-04-23 21:05:00,43.1,35.4,29.85,SW,225,0.0,0.0,74,0.00,,,0.00,WUHU216HW,2013-04-24 04:05:00,
2013-04-23 21:10:00,42.9,35.2,29.86,SW,225,0.0,0.0,74,0.00,,,0.00,WUHU216HW,2013-04-24 04:10:00,
2013-04-23 21:15:00,42.6,35.2,29.86,SW,225,0.0,0.0,75,0.00,,,0.00,WUHU216HW,2013-04-24 04:15:00,
2013-04-23 21:20:00,42.4,35.0,29.85,SW,225,0.0,0.0,75,0.00,,,0.00,WUHU216HW,2013-04-24 04:20:00,
2013-04-23 21:25:00,42.0,34.7,29.86,SW,225,0.0,0.0,75,0.00,,,0.00,WUHU216HW,2013-04-24 04:25:00,
2013-04-23 21:30:00,42.0,35.0,29.87,SW,225,0.0,0.0,76,0.00,,,0.00,WUHU216HW,2013-04-24 04:30:00,
2013-04-23 21:35:00,41.7,34.8,29.87,SW,225,0.0,0.0,76,0.00,,,0.00,WUHU216HW,2013-04-24 04:35:00,
2013-04-23 21:40:00,41.5,34.8,29.87,SW,225,0.0,0.0,77,0.00,,,0.00,WUHU216HW,2013-04-24 04:40:00,
2013-04-23 21:45:00,41.1,34.4,29.87,SW,225,0.0,0.0,77,0.00,,,0.00,WUHU216HW,2013-04-24 04:45:00,
2013-04-23 21:50:00,40.8,34.0,29.87,SW,225,0.0,0.0,77,0.00,,,0.00,WUHU216HW,2013-04-24 04:50:00,
2013-04-23 21:55:00,40.6,34.2,29.88,SW,225,0.0,0.0,78,0.00,,,0.00,WUHU216HW,2013-04-24 04:55:00,
2013-04-23 22:00:00,40.2,33.9,29.88,SW,225,0.0,0.0,78,0.00,,,0.00,WUHU216HW,2013-04-24 05:00:00,
2013-04-23 22:05:00,39.9,33.9,29.87,SW,225,0.0,0.0,79,0.00,,,0.00,WUHU216HW,2013-04-24 05:05:00,
2013-04-23 22:10:00,39.9,33.9,29.88,SW,225,0.0,0.0,79,0.00,,,0.00,WUHU216HW,2013-04-24 05:10:00,
2013-04-23 22:15:00,39.9,33.9,29.88,SW,225,0.0,0.0,79,0.00,,,0.00,WUHU216HW,2013-04-24 05:15:00,
2013-04-23 22:20:00,39.7,33.7,29.88,SW,225,0.0,0.0,79,0.00,,,0.00,WUHU216HW,2013-04-24 05:20:00,
2013-04-23 22:25:00,39.5,33.6,29.88,SW,225,0.0,0.0,79,0.00,,,0.00,WUHU216HW,2013-04-24 05:25:00,
2013-04-23 22:30:00,39.3,33.4,29.88,SW,225,0.0,0.0,79,0.00,,,0.00,WUHU216HW,2013-04-24 05:30:00,
2013-04-23 22:36:00,39.0,33.0,29.88,SW,225,0.0,0.0,79,0.00,,,0.00,WUHU216HW,2013-04-24 05:36:00,
2013-04-23 22:41:00,38.4,32.9,29.89,SW,225,0.0,0.0,80,0.00,,,0.00,WUHU216HW,2013-04-24 05:41:00,
2013-04-23 22:46:00,38.4,32.9,29.88,SW,225,0.0,0.0,80,0.00,,,0.00,WUHU216HW,2013-04-24 05:46:00,
2013-04-23 22:51:00,38.4,33.1,29.89,SW,225,0.0,0.0,81,0.00,,,0.00,WUHU216HW,2013-04-24 05:51:00,
2013-04-23 22:56:00,38.3,33.0,29.89,SW,225,0.0,0.0,81,0.00,,,0.00,WUHU216HW,2013-04-24 05:56:00,
2013-04-23 23:01:00,37.9,32.6,29.89,SW,225,0.0,0.0,81,0.00,,,0.00,WUHU216HW,2013-04-24 06:01:00,
2013-04-23 23:06:00,37.9,32.6,29.90,SW,225,0.0,0.0,81,0.00,,,0.00,WUHU216HW,2013-04-24 06:06:00,
2013-04-23 23:11:00,37.5,32.7,29.90,SW,225,0.0,0.0,82,0.00,,,0.00,WUHU216HW,2013-04-24 06:11:00,
2013-04-23 23:16:00,37.2,31.9,29.89,SW,225,0.0,0.0,81,0.00,,,0.00,WUHU216HW,2013-04-24 06:16:00,
2013-04-23 23:21:00,36.8,31.8,29.89,SW,225,0.0,0.0,82,0.00,,,0.00,WUHU216HW,2013-04-24 06:21:00,
2013-04-23 23:26:00,36.6,31.6,29.89,SW,225,0.0,0.0,82,0.00,,,0.00,WUHU216HW,2013-04-24 06:26:00,
2013-04-23 23:31:00,36.6,31.9,29.89,SW,225,0.0,0.0,83,0.00,,,0.00,WUHU216HW,2013-04-24 06:31:00,
2013-04-23 23:36:00,36.8,31.9,29.89,SW,225,0.0,0.0,83,0.00,,,0.00,WUHU216HW,2013-04-24 06:36:00,
2013-04-23 23:41:00,36.6,31.9,29.89,SW,225,0.0,0.0,83,0.00,,,0.00,WUHU216HW,2013-04-24 06:41:00,
2013-04-23 23:46:00,36.5,31.7,29.89,SW,225,0.0,0.0,83,0.00,,,0.00,WUHU216HW,2013-04-24 06:46:00,
2013-04-23 23:51:00,36.3,31.6,29.89,SW,225,0.0,0.0,83,0.00,,,0.00,WUHU216HW,2013-04-24 06:51:00,
2013-04-23 23:56:00,36.3,31.6,29.89,SW,225,0.0,0.0,83,0.00,,,0.00,WUHU216HW,2013-04-24 06:56:00,